sensor_id;sensor_type;location;lat;lon;timestamp;pressure;altitude;pressure_sealevel;temperature;humidity
50349;BME280;36250;48.740;22.174;2023-03-04T00:01:29;100597.66;;;0.60;68.71
50349;BME280;36250;48.740;22.174;2023-03-04T00:03:54;100598.53;;;0.52;68.79
50349;BME280;36250;48.740;22.174;2023-03-04T00:06:20;100600.75;;;0.49;69.41
50349;BME280;36250;48.740;22.174;2023-03-04T00:08:45;100598.88;;;0.49;69.08
50349;BME280;36250;48.740;22.174;2023-03-04T00:11:10;100593.53;;;0.49;68.90
50349;BME280;36250;48.740;22.174;2023-03-04T00:13:36;100589.84;;;0.50;68.57
50349;BME280;36250;48.740;22.174;2023-03-04T00:16:01;100587.34;;;0.49;68.87
50349;BME280;36250;48.740;22.174;2023-03-04T00:18:27;100582.81;;;0.49;68.64
50349;BME280;36250;48.740;22.174;2023-03-04T00:20:52;100585.13;;;0.52;68.71
50349;BME280;36250;48.740;22.174;2023-03-04T00:23:17;100585.44;;;0.57;68.50
50349;BME280;36250;48.740;22.174;2023-03-04T00:25:43;100578.06;;;0.59;68.55
50349;BME280;36250;48.740;22.174;2023-03-04T00:28:08;100580.69;;;0.68;68.46
50349;BME280;36250;48.740;22.174;2023-03-04T00:30:33;100579.16;;;0.73;68.50
50349;BME280;36250;48.740;22.174;2023-03-04T00:32:59;100580.13;;;0.80;67.79
50349;BME280;36250;48.740;22.174;2023-03-04T00:35:24;100577.91;;;0.84;68.20
50349;BME280;36250;48.740;22.174;2023-03-04T00:37:49;100569.50;;;0.87;68.07
50349;BME280;36250;48.740;22.174;2023-03-04T00:40:15;100562.97;;;0.89;68.33
50349;BME280;36250;48.740;22.174;2023-03-04T00:42:40;100562.44;;;0.94;67.96
50349;BME280;36250;48.740;22.174;2023-03-04T00:45:06;100559.75;;;0.94;67.91
50349;BME280;36250;48.740;22.174;2023-03-04T00:47:32;100562.25;;;0.95;67.67
50349;BME280;36250;48.740;22.174;2023-03-04T00:49:57;100563.47;;;0.93;67.64
50349;BME280;36250;48.740;22.174;2023-03-04T00:52:23;100553.09;;;0.90;67.44
50349;BME280;36250;48.740;22.174;2023-03-04T00:54:48;100554.81;;;0.83;67.62
50349;BME280;36250;48.740;22.174;2023-03-04T00:57:13;100558.69;;;0.80;67.49
50349;BME280;36250;48.740;22.174;2023-03-04T00:59:39;100558.84;;;0.79;67.78
50349;BME280;36250;48.740;22.174;2023-03-04T01:02:05;100555.53;;;0.77;67.41
50349;BME280;36250;48.740;22.174;2023-03-04T01:04:30;100553.19;;;0.74;67.87
50349;BME280;36250;48.740;22.174;2023-03-04T01:06:55;100561.59;;;0.71;67.33
50349;BME280;36250;48.740;22.174;2023-03-04T01:09:21;100556.41;;;0.69;67.32
50349;BME280;36250;48.740;22.174;2023-03-04T01:11:46;100542.56;;;0.65;67.53
50349;BME280;36250;48.740;22.174;2023-03-04T01:14:11;100548.06;;;0.64;67.38
50349;BME280;36250;48.740;22.174;2023-03-04T01:16:37;100536.91;;;0.60;67.16
50349;BME280;36250;48.740;22.174;2023-03-04T01:19:02;100542.25;;;0.60;67.25
50349;BME280;36250;48.740;22.174;2023-03-04T01:21:27;100543.25;;;0.59;67.18
50349;BME280;36250;48.740;22.174;2023-03-04T01:23:53;100539.72;;;0.59;67.38
50349;BME280;36250;48.740;22.174;2023-03-04T01:26:18;100535.22;;;0.59;67.17
50349;BME280;36250;48.740;22.174;2023-03-04T01:28:43;100532.38;;;0.61;67.34
50349;BME280;36250;48.740;22.174;2023-03-04T01:31:09;100530.50;;;0.61;67.01
50349;BME280;36250;48.740;22.174;2023-03-04T01:33:34;100531.00;;;0.65;67.48
50349;BME280;36250;48.740;22.174;2023-03-04T01:35:59;100528.63;;;0.70;67.16
50349;BME280;36250;48.740;22.174;2023-03-04T01:38:25;100529.06;;;0.74;67.08
50349;BME280;36250;48.740;22.174;2023-03-04T01:40:50;100523.38;;;0.77;66.96
50349;BME280;36250;48.740;22.174;2023-03-04T01:43:21;100518.66;;;0.79;67.10
50349;BME280;36250;48.740;22.174;2023-03-04T01:45:48;100513.78;;;0.82;67.07
50349;BME280;36250;48.740;22.174;2023-03-04T01:48:18;100513.44;;;0.85;66.54
50349;BME280;36250;48.740;22.174;2023-03-04T01:50:44;100508.88;;;0.86;67.12
50349;BME280;36250;48.740;22.174;2023-03-04T01:53:18;100503.19;;;0.89;66.85
50349;BME280;36250;48.740;22.174;2023-03-04T01:55:45;100510.22;;;0.90;66.59
50349;BME280;36250;48.740;22.174;2023-03-04T01:58:11;100498.66;;;0.89;67.19
50349;BME280;36250;48.740;22.174;2023-03-04T02:00:37;100499.84;;;0.87;66.75
50349;BME280;36250;48.740;22.174;2023-03-04T02:03:13;100498.16;;;0.86;66.90
50349;BME280;36250;48.740;22.174;2023-03-04T02:05:42;100501.22;;;0.83;66.59
50349;BME280;36250;48.740;22.174;2023-03-04T02:08:09;100493.19;;;0.83;67.13
50349;BME280;36250;48.740;22.174;2023-03-04T02:10:36;100497.72;;;0.82;67.28
50349;BME280;36250;48.740;22.174;2023-03-04T02:13:02;100490.69;;;0.81;67.03
50349;BME280;36250;48.740;22.174;2023-03-04T02:15:28;100494.84;;;0.84;67.06
50349;BME280;36250;48.740;22.174;2023-03-04T02:17:54;100492.00;;;0.85;66.70
50349;BME280;36250;48.740;22.174;2023-03-04T02:23:20;100486.81;;;0.84;67.38
50349;BME280;36250;48.740;22.174;2023-03-04T02:26:06;100487.00;;;0.82;66.69
50349;BME280;36250;48.740;22.174;2023-03-04T02:28:31;100485.69;;;0.78;66.89
50349;BME280;36250;48.740;22.174;2023-03-04T02:30:56;100490.38;;;0.76;66.70
50349;BME280;36250;48.740;22.174;2023-03-04T02:33:22;100482.34;;;0.76;66.87
50349;BME280;36250;48.740;22.174;2023-03-04T02:35:47;100479.03;;;0.74;66.41
50349;BME280;36250;48.740;22.174;2023-03-04T02:38:13;100481.16;;;0.79;66.64
50349;BME280;36250;48.740;22.174;2023-03-04T02:40:40;100475.16;;;0.77;66.79
50349;BME280;36250;48.740;22.174;2023-03-04T02:43:10;100475.78;;;0.79;66.77
50349;BME280;36250;48.740;22.174;2023-03-04T02:45:46;100477.66;;;0.78;67.07
50349;BME280;36250;48.740;22.174;2023-03-04T02:48:14;100472.97;;;0.80;66.87
50349;BME280;36250;48.740;22.174;2023-03-04T02:50:43;100476.81;;;0.78;67.27
50349;BME280;36250;48.740;22.174;2023-03-04T02:53:09;100474.16;;;0.78;67.50
50349;BME280;36250;48.740;22.174;2023-03-04T02:55:34;100476.47;;;0.81;67.09
50349;BME280;36250;48.740;22.174;2023-03-04T02:58:00;100478.66;;;0.77;67.65
50349;BME280;36250;48.740;22.174;2023-03-04T03:00:26;100468.84;;;0.70;68.32
50349;BME280;36250;48.740;22.174;2023-03-04T03:02:52;100470.34;;;0.72;67.95
50349;BME280;36250;48.740;22.174;2023-03-04T03:05:17;100476.19;;;0.76;68.21
50349;BME280;36250;48.740;22.174;2023-03-04T03:07:43;100472.81;;;0.74;67.90
50349;BME280;36250;48.740;22.174;2023-03-04T03:10:09;100468.31;;;0.74;67.92
50349;BME280;36250;48.740;22.174;2023-03-04T03:12:34;100458.06;;;0.78;68.12
50349;BME280;36250;48.740;22.174;2023-03-04T03:14:59;100459.00;;;0.85;68.66
50349;BME280;36250;48.740;22.174;2023-03-04T03:17:25;100454.59;;;0.92;68.28
50349;BME280;36250;48.740;22.174;2023-03-04T03:19:50;100455.53;;;0.99;68.42
50349;BME280;36250;48.740;22.174;2023-03-04T03:22:16;100448.13;;;1.01;68.38
50349;BME280;36250;48.740;22.174;2023-03-04T03:24:41;100446.56;;;1.06;68.45
50349;BME280;36250;48.740;22.174;2023-03-04T03:27:06;100446.22;;;1.09;68.27
50349;BME280;36250;48.740;22.174;2023-03-04T03:29:32;100443.69;;;1.08;68.41
50349;BME280;36250;48.740;22.174;2023-03-04T03:31:57;100445.38;;;1.09;68.96
50349;BME280;36250;48.740;22.174;2023-03-04T03:34:22;100439.72;;;1.04;68.57
50349;BME280;36250;48.740;22.174;2023-03-04T03:36:47;100445.84;;;0.98;68.80
50349;BME280;36250;48.740;22.174;2023-03-04T03:39:13;100445.84;;;0.98;68.96
50349;BME280;36250;48.740;22.174;2023-03-04T03:41:40;100442.47;;;0.96;68.90
50349;BME280;36250;48.740;22.174;2023-03-04T03:44:05;100443.22;;;0.90;69.43
50349;BME280;36250;48.740;22.174;2023-03-04T03:46:31;100452.38;;;0.81;69.22
50349;BME280;36250;48.740;22.174;2023-03-04T03:48:56;100450.75;;;0.72;69.74
50349;BME280;36250;48.740;22.174;2023-03-04T03:51:22;100444.44;;;0.64;69.59
50349;BME280;36250;48.740;22.174;2023-03-04T03:53:47;100442.59;;;0.65;69.96
50349;BME280;36250;48.740;22.174;2023-03-04T03:56:12;100441.13;;;0.62;70.42
50349;BME280;36250;48.740;22.174;2023-03-04T03:58:38;100442.22;;;0.53;70.37
50349;BME280;36250;48.740;22.174;2023-03-04T04:01:03;100446.69;;;0.38;70.58
50349;BME280;36250;48.740;22.174;2023-03-04T04:03:29;100442.56;;;0.28;71.48
50349;BME280;36250;48.740;22.174;2023-03-04T04:05:55;100445.25;;;0.28;71.50
50349;BME280;36250;48.740;22.174;2023-03-04T04:08:20;100443.41;;;0.28;71.57
50349;BME280;36250;48.740;22.174;2023-03-04T04:10:45;100440.78;;;0.20;72.05
50349;BME280;36250;48.740;22.174;2023-03-04T04:13:11;100437.44;;;0.18;71.80
50349;BME280;36250;48.740;22.174;2023-03-04T04:15:36;100432.75;;;0.20;71.72
50349;BME280;36250;48.740;22.174;2023-03-04T04:18:03;100434.41;;;0.21;71.71
50349;BME280;36250;48.740;22.174;2023-03-04T04:20:29;100427.56;;;0.19;71.60
50349;BME280;36250;48.740;22.174;2023-03-04T04:22:55;100426.56;;;0.20;71.50
50349;BME280;36250;48.740;22.174;2023-03-04T04:25:20;100433.69;;;0.27;71.74
50349;BME280;36250;48.740;22.174;2023-03-04T04:27:45;100442.03;;;0.32;71.18
50349;BME280;36250;48.740;22.174;2023-03-04T04:30:11;100429.28;;;0.34;71.28
50349;BME280;36250;48.740;22.174;2023-03-04T04:32:36;100428.09;;;0.37;70.89
50349;BME280;36250;48.740;22.174;2023-03-04T04:35:01;100423.94;;;0.34;70.88
50349;BME280;36250;48.740;22.174;2023-03-04T04:37:27;100426.69;;;0.26;70.62
50349;BME280;36250;48.740;22.174;2023-03-04T04:39:52;100432.41;;;0.23;70.88
50349;BME280;36250;48.740;22.174;2023-03-04T04:42:20;100430.84;;;0.06;71.87
50349;BME280;36250;48.740;22.174;2023-03-04T04:44:45;100432.75;;;-0.03;72.15
50349;BME280;36250;48.740;22.174;2023-03-04T04:47:10;100427.41;;;-0.03;72.33
50349;BME280;36250;48.740;22.174;2023-03-04T04:49:36;100423.56;;;-0.08;72.58
50349;BME280;36250;48.740;22.174;2023-03-04T04:52:01;100422.72;;;-0.09;72.92
50349;BME280;36250;48.740;22.174;2023-03-04T04:54:26;100419.19;;;-0.01;72.93
50349;BME280;36250;48.740;22.174;2023-03-04T04:56:52;100420.13;;;0.06;72.77
50349;BME280;36250;48.740;22.174;2023-03-04T04:59:17;100429.47;;;0.10;72.53
50349;BME280;36250;48.740;22.174;2023-03-04T05:01:42;100420.78;;;0.08;72.73
50349;BME280;36250;48.740;22.174;2023-03-04T05:04:08;100420.13;;;0.06;72.49
50349;BME280;36250;48.740;22.174;2023-03-04T05:06:33;100418.84;;;0.02;73.08
50349;BME280;36250;48.740;22.174;2023-03-04T05:08:59;100418.84;;;0.02;73.00
50349;BME280;36250;48.740;22.174;2023-03-04T05:11:24;100411.41;;;0.12;72.67
50349;BME280;36250;48.740;22.174;2023-03-04T05:13:49;100413.34;;;0.18;72.45
50349;BME280;36250;48.740;22.174;2023-03-04T05:16:16;100405.63;;;0.23;72.09
50349;BME280;36250;48.740;22.174;2023-03-04T05:18:41;100415.16;;;0.26;72.07
50349;BME280;36250;48.740;22.174;2023-03-04T05:21:07;100412.75;;;0.31;71.88
50349;BME280;36250;48.740;22.174;2023-03-04T05:23:35;100418.22;;;0.37;71.66
50349;BME280;36250;48.740;22.174;2023-03-04T05:26:01;100411.03;;;0.38;71.68
50349;BME280;36250;48.740;22.174;2023-03-04T05:28:27;100411.53;;;0.41;71.85
50349;BME280;36250;48.740;22.174;2023-03-04T05:30:53;100414.19;;;0.41;71.78
50349;BME280;36250;48.740;22.174;2023-03-04T05:33:19;100410.97;;;0.46;71.54
50349;BME280;36250;48.740;22.174;2023-03-04T05:35:45;100415.31;;;0.47;71.62
50349;BME280;36250;48.740;22.174;2023-03-04T05:38:14;100416.63;;;0.51;71.55
50349;BME280;36250;48.740;22.174;2023-03-04T05:40:40;100418.13;;;0.53;71.57
50349;BME280;36250;48.740;22.174;2023-03-04T05:43:06;100419.41;;;0.57;71.59
50349;BME280;36250;48.740;22.174;2023-03-04T05:45:32;100424.41;;;0.60;71.43
50349;BME280;36250;48.740;22.174;2023-03-04T05:47:57;100433.44;;;0.59;71.72
50349;BME280;36250;48.740;22.174;2023-03-04T05:50:23;100434.09;;;0.61;71.97
50349;BME280;36250;48.740;22.174;2023-03-04T05:52:48;100433.56;;;0.66;72.34
50349;BME280;36250;48.740;22.174;2023-03-04T05:55:15;100443.56;;;0.72;72.14
50349;BME280;36250;48.740;22.174;2023-03-04T05:57:40;100427.97;;;0.76;72.10
50349;BME280;36250;48.740;22.174;2023-03-04T06:00:06;100427.22;;;0.82;72.28
50349;BME280;36250;48.740;22.174;2023-03-04T06:02:36;100425.81;;;0.86;71.75
50349;BME280;36250;48.740;22.174;2023-03-04T06:05:01;100435.53;;;0.87;71.50
50349;BME280;36250;48.740;22.174;2023-03-04T06:07:27;100440.91;;;0.87;71.57
50349;BME280;36250;48.740;22.174;2023-03-04T06:09:52;100437.38;;;0.86;71.34
50349;BME280;36250;48.740;22.174;2023-03-04T06:12:18;100441.91;;;0.86;71.85
50349;BME280;36250;48.740;22.174;2023-03-04T06:14:43;100446.25;;;0.87;72.01
50349;BME280;36250;48.740;22.174;2023-03-04T06:17:09;100440.25;;;0.85;71.72
50349;BME280;36250;48.740;22.174;2023-03-04T06:19:34;100435.91;;;0.84;72.17
50349;BME280;36250;48.740;22.174;2023-03-04T06:22:02;100440.25;;;0.85;72.03
50349;BME280;36250;48.740;22.174;2023-03-04T06:24:27;100427.69;;;0.85;71.93
50349;BME280;36250;48.740;22.174;2023-03-04T06:26:52;100431.13;;;0.94;71.85
50349;BME280;36250;48.740;22.174;2023-03-04T06:29:18;100429.56;;;0.99;71.69
50349;BME280;36250;48.740;22.174;2023-03-04T06:31:43;100433.81;;;1.08;71.32
50349;BME280;36250;48.740;22.174;2023-03-04T06:34:09;100423.66;;;1.18;71.40
50349;BME280;36250;48.740;22.174;2023-03-04T06:36:34;100436.63;;;1.29;70.89
50349;BME280;36250;48.740;22.174;2023-03-04T06:39:04;100435.50;;;1.39;70.84
50349;BME280;36250;48.740;22.174;2023-03-04T06:41:29;100438.75;;;1.49;70.54
50349;BME280;36250;48.740;22.174;2023-03-04T06:43:55;100448.25;;;1.51;70.24
50349;BME280;36250;48.740;22.174;2023-03-04T06:46:20;100448.44;;;1.50;69.78
50349;BME280;36250;48.740;22.174;2023-03-04T06:48:46;100455.28;;;1.52;70.01
50349;BME280;36250;48.740;22.174;2023-03-04T06:51:11;100443.19;;;1.56;70.00
50349;BME280;36250;48.740;22.174;2023-03-04T06:53:37;100445.03;;;1.56;70.17
50349;BME280;36250;48.740;22.174;2023-03-04T06:56:04;100446.03;;;1.55;70.28
50349;BME280;36250;48.740;22.174;2023-03-04T06:58:29;100448.00;;;1.46;70.27
50349;BME280;36250;48.740;22.174;2023-03-04T07:00:55;100450.03;;;1.44;70.87
50349;BME280;36250;48.740;22.174;2023-03-04T07:03:20;100445.38;;;1.38;71.59
50349;BME280;36250;48.740;22.174;2023-03-04T07:05:46;100442.34;;;1.41;72.29
50349;BME280;36250;48.740;22.174;2023-03-04T07:08:12;100452.03;;;1.42;72.68
50349;BME280;36250;48.740;22.174;2023-03-04T07:10:37;100449.63;;;1.47;72.37
50349;BME280;36250;48.740;22.174;2023-03-04T07:13:02;100452.22;;;1.55;71.89
50349;BME280;36250;48.740;22.174;2023-03-04T07:15:28;100446.31;;;1.60;71.75
50349;BME280;36250;48.740;22.174;2023-03-04T07:17:54;100450.38;;;1.70;71.53
50349;BME280;36250;48.740;22.174;2023-03-04T07:20:20;100443.16;;;1.71;71.51
50349;BME280;36250;48.740;22.174;2023-03-04T07:22:45;100433.13;;;1.79;71.52
50349;BME280;36250;48.740;22.174;2023-03-04T07:25:10;100442.72;;;1.88;71.48
50349;BME280;36250;48.740;22.174;2023-03-04T07:27:36;100441.34;;;1.92;71.34
50349;BME280;36250;48.740;22.174;2023-03-04T07:30:04;100437.84;;;1.92;71.73
50349;BME280;36250;48.740;22.174;2023-03-04T07:32:29;100440.53;;;1.92;71.34
50349;BME280;36250;48.740;22.174;2023-03-04T07:34:55;100440.59;;;1.98;71.10
50349;BME280;36250;48.740;22.174;2023-03-04T07:37:20;100430.22;;;2.10;70.77
50349;BME280;36250;48.740;22.174;2023-03-04T07:39:45;100434.81;;;2.16;70.67
50349;BME280;36250;48.740;22.174;2023-03-04T07:42:11;100434.50;;;2.26;70.37
50349;BME280;36250;48.740;22.174;2023-03-04T07:44:36;100428.78;;;2.35;70.00
50349;BME280;36250;48.740;22.174;2023-03-04T07:47:02;100425.66;;;2.53;68.78
50349;BME280;36250;48.740;22.174;2023-03-04T07:49:27;100415.47;;;2.70;67.66
50349;BME280;36250;48.740;22.174;2023-03-04T07:51:52;100413.50;;;2.78;67.07
50349;BME280;36250;48.740;22.174;2023-03-04T07:54:18;100415.63;;;2.89;66.50
50349;BME280;36250;48.740;22.174;2023-03-04T07:56:44;100412.78;;;2.91;65.56
50349;BME280;36250;48.740;22.174;2023-03-04T07:59:10;100421.94;;;3.03;66.72
50349;BME280;36250;48.740;22.174;2023-03-04T08:01:36;100418.28;;;3.10;66.12
50349;BME280;36250;48.740;22.174;2023-03-04T08:04:04;100409.22;;;3.18;66.19
50349;BME280;36250;48.740;22.174;2023-03-04T08:06:30;100405.13;;;3.22;65.41
50349;BME280;36250;48.740;22.174;2023-03-04T08:09:00;100404.72;;;3.25;65.96
50349;BME280;36250;48.740;22.174;2023-03-04T08:11:27;100408.69;;;3.36;66.23
50349;BME280;36250;48.740;22.174;2023-03-04T08:13:54;100402.94;;;3.39;65.63
50349;BME280;36250;48.740;22.174;2023-03-04T08:16:20;100401.72;;;3.48;66.06
50349;BME280;36250;48.740;22.174;2023-03-04T08:18:49;100394.50;;;3.55;65.88
50349;BME280;36250;48.740;22.174;2023-03-04T08:21:15;100392.94;;;3.73;65.45
50349;BME280;36250;48.740;22.174;2023-03-04T08:23:42;100387.59;;;3.86;65.79
50349;BME280;36250;48.740;22.174;2023-03-04T08:26:11;100389.50;;;3.99;65.23
50349;BME280;36250;48.740;22.174;2023-03-04T08:28:37;100390.16;;;4.08;65.04
50349;BME280;36250;48.740;22.174;2023-03-04T08:31:02;100383.75;;;4.15;65.50
50349;BME280;36250;48.740;22.174;2023-03-04T08:33:28;100379.03;;;4.30;65.68
50349;BME280;36250;48.740;22.174;2023-03-04T08:35:53;100377.75;;;4.52;64.18
50349;BME280;36250;48.740;22.174;2023-03-04T08:38:19;100369.28;;;4.69;64.28
50349;BME280;36250;48.740;22.174;2023-03-04T08:40:44;100373.81;;;4.88;64.57
50349;BME280;36250;48.740;22.174;2023-03-04T08:43:09;100362.41;;;5.05;64.15
50349;BME280;36250;48.740;22.174;2023-03-04T08:45:35;100364.84;;;5.26;63.91
50349;BME280;36250;48.740;22.174;2023-03-04T08:48:00;100362.09;;;5.40;63.42
50349;BME280;36250;48.740;22.174;2023-03-04T08:50:26;100356.47;;;5.48;63.99
50349;BME280;36250;48.740;22.174;2023-03-04T08:52:52;100356.41;;;5.61;63.97
50349;BME280;36250;48.740;22.174;2023-03-04T08:55:17;100362.88;;;5.60;65.03
50349;BME280;36250;48.740;22.174;2023-03-04T08:57:44;100360.16;;;5.53;65.45
50349;BME280;36250;48.740;22.174;2023-03-04T09:00:10;100360.59;;;5.50;65.57
50349;BME280;36250;48.740;22.174;2023-03-04T09:02:36;100366.00;;;5.50;65.96
50349;BME280;36250;48.740;22.174;2023-03-04T09:05:01;100371.00;;;5.47;66.32
50349;BME280;36250;48.740;22.174;2023-03-04T09:07:27;100361.88;;;5.41;66.86
50349;BME280;36250;48.740;22.174;2023-03-04T09:09:52;100358.34;;;5.47;67.93
50349;BME280;36250;48.740;22.174;2023-03-04T09:12:18;100365.16;;;5.56;68.06
50349;BME280;36250;48.740;22.174;2023-03-04T09:14:43;100350.72;;;5.75;67.68
50349;BME280;36250;48.740;22.174;2023-03-04T09:17:08;100352.63;;;5.68;67.20
50349;BME280;36250;48.740;22.174;2023-03-04T09:19:34;100345.81;;;5.59;68.58
50349;BME280;36250;48.740;22.174;2023-03-04T09:21:59;100352.72;;;5.49;68.92
50349;BME280;36250;48.740;22.174;2023-03-04T09:24:25;100335.69;;;5.48;69.34
50349;BME280;36250;48.740;22.174;2023-03-04T09:26:52;100343.59;;;5.43;70.00
50349;BME280;36250;48.740;22.174;2023-03-04T09:29:19;100327.84;;;5.40;70.14
50349;BME280;36250;48.740;22.174;2023-03-04T09:31:45;100325.53;;;5.44;70.84
50349;BME280;36250;48.740;22.174;2023-03-04T09:34:10;100324.69;;;5.43;70.19
50349;BME280;36250;48.740;22.174;2023-03-04T09:36:35;100320.16;;;5.37;70.89
50349;BME280;36250;48.740;22.174;2023-03-04T09:39:02;100322.25;;;5.35;71.29
50349;BME280;36250;48.740;22.174;2023-03-04T09:41:41;100324.16;;;5.28;71.70
50349;BME280;36250;48.740;22.174;2023-03-04T09:44:20;100324.16;;;5.21;71.63
50349;BME280;36250;48.740;22.174;2023-03-04T09:46:48;100323.78;;;5.18;71.74
50349;BME280;36250;48.740;22.174;2023-03-04T09:49:14;100323.75;;;5.24;71.61
50349;BME280;36250;48.740;22.174;2023-03-04T09:51:48;100321.81;;;5.38;71.79
50349;BME280;36250;48.740;22.174;2023-03-04T09:54:31;100317.25;;;5.45;71.61
50349;BME280;36250;48.740;22.174;2023-03-04T09:57:16;100306.06;;;5.35;70.78
50349;BME280;36250;48.740;22.174;2023-03-04T09:59:52;100318.56;;;5.23;71.01
50349;BME280;36250;48.740;22.174;2023-03-04T10:03:26;100310.03;;;5.26;71.97
50349;BME280;36250;48.740;22.174;2023-03-04T10:05:26;100308.84;;;5.15;71.82
50349;BME280;36250;48.740;22.174;2023-03-04T10:10:51;100301.34;;;5.17;71.67
50349;BME280;36250;48.740;22.174;2023-03-04T10:13:25;100302.59;;;5.15;71.32
50349;BME280;36250;48.740;22.174;2023-03-04T10:15:58;100299.69;;;5.23;71.25
50349;BME280;36250;48.740;22.174;2023-03-04T10:18:40;100290.09;;;5.27;71.32
50349;BME280;36250;48.740;22.174;2023-03-04T10:21:31;100293.22;;;5.30;71.80
50349;BME280;36250;48.740;22.174;2023-03-04T10:24:00;100275.31;;;5.36;71.18
50349;BME280;36250;48.740;22.174;2023-03-04T10:26:30;100277.00;;;5.37;71.44
50349;BME280;36250;48.740;22.174;2023-03-04T10:28:57;100272.19;;;5.39;71.71
50349;BME280;36250;48.740;22.174;2023-03-04T10:31:31;100264.16;;;5.26;72.30
50349;BME280;36250;48.740;22.174;2023-03-04T10:34:02;100259.41;;;5.28;72.75
50349;BME280;36250;48.740;22.174;2023-03-04T10:39:00;100258.09;;;5.37;71.58
50349;BME280;36250;48.740;22.174;2023-03-04T10:41:26;100253.78;;;5.29;71.40
50349;BME280;36250;48.740;22.174;2023-03-04T10:46:37;100239.94;;;5.51;71.15
50349;BME280;36250;48.740;22.174;2023-03-04T10:49:02;100242.63;;;5.57;71.62
50349;BME280;36250;48.740;22.174;2023-03-04T10:51:28;100234.28;;;5.59;71.18
50349;BME280;36250;48.740;22.174;2023-03-04T10:54:06;100231.00;;;5.57;71.48
50349;BME280;36250;48.740;22.174;2023-03-04T10:56:39;100225.16;;;5.60;70.96
50349;BME280;36250;48.740;22.174;2023-03-04T11:01:54;100217.50;;;5.50;70.73
50349;BME280;36250;48.740;22.174;2023-03-04T11:04:23;100209.03;;;5.47;71.21
50349;BME280;36250;48.740;22.174;2023-03-04T11:06:52;100205.31;;;5.41;71.42
50349;BME280;36250;48.740;22.174;2023-03-04T11:09:26;100209.09;;;5.40;71.05
50349;BME280;36250;48.740;22.174;2023-03-04T11:11:54;100206.16;;;5.42;71.37
50349;BME280;36250;48.740;22.174;2023-03-04T11:16:59;100207.97;;;5.54;71.21
50349;BME280;36250;48.740;22.174;2023-03-04T11:19:34;100195.84;;;5.63;70.50
50349;BME280;36250;48.740;22.174;2023-03-04T11:22:03;100187.25;;;5.73;70.31
50349;BME280;36250;48.740;22.174;2023-03-04T11:24:29;100167.97;;;5.69;69.80
50349;BME280;36250;48.740;22.174;2023-03-04T11:27:35;100166.81;;;5.83;70.13
50349;BME280;36250;48.740;22.174;2023-03-04T11:29:55;100160.56;;;5.89;69.76
50349;BME280;36250;48.740;22.174;2023-03-04T11:32:31;100151.56;;;5.95;69.16
50349;BME280;36250;48.740;22.174;2023-03-04T11:35:17;100138.16;;;6.07;69.65
50349;BME280;36250;48.740;22.174;2023-03-04T11:40:44;100143.66;;;6.19;69.20
50349;BME280;36250;48.740;22.174;2023-03-04T11:43:18;100139.47;;;6.23;68.09
50349;BME280;36250;48.740;22.174;2023-03-04T11:45:59;100131.53;;;6.28;68.42
50349;BME280;36250;48.740;22.174;2023-03-04T11:56:58;100122.63;;;6.75;66.22
50349;BME280;36250;48.740;22.174;2023-03-04T11:59:49;100115.09;;;6.95;65.88
50349;BME280;36250;48.740;22.174;2023-03-04T12:02:19;100105.06;;;7.14;65.45
50349;BME280;36250;48.740;22.174;2023-03-04T12:08:11;100101.94;;;7.28;64.37
50349;BME280;36250;48.740;22.174;2023-03-04T12:10:52;100095.69;;;7.28;63.54
50349;BME280;36250;48.740;22.174;2023-03-04T12:16:14;100086.91;;;7.56;63.69
50349;BME280;36250;48.740;22.174;2023-03-04T12:18:56;100089.16;;;7.70;63.40
50349;BME280;36250;48.740;22.174;2023-03-04T12:33:05;100080.94;;;7.77;62.59
50349;BME280;36250;48.740;22.174;2023-03-04T12:41:26;100064.53;;;8.18;61.30
50349;BME280;36250;48.740;22.174;2023-03-04T12:46:37;100049.78;;;9.22;59.94
50349;BME280;36250;48.740;22.174;2023-03-04T12:49:33;100041.38;;;12.30;53.64
50349;BME280;36250;48.740;22.174;2023-03-04T12:52:08;100048.84;;;11.98;51.61
50349;BME280;36250;48.740;22.174;2023-03-04T12:54:55;100029.16;;;13.45;48.68
50349;BME280;36250;48.740;22.174;2023-03-04T12:57:28;100036.75;;;12.36;49.69
50349;BME280;36250;48.740;22.174;2023-03-04T13:03:06;100031.72;;;10.81;52.77
50349;BME280;36250;48.740;22.174;2023-03-04T13:08:15;100019.66;;;11.30;52.56
50349;BME280;36250;48.740;22.174;2023-03-04T13:10:44;100016.41;;;11.33;52.26
50349;BME280;36250;48.740;22.174;2023-03-04T13:18:43;100018.16;;;11.76;50.96
50349;BME280;36250;48.740;22.174;2023-03-04T13:23:37;100002.59;;;15.14;45.10
50349;BME280;36250;48.740;22.174;2023-03-04T13:29:37;100000.38;;;16.60;40.28
50349;BME280;36250;48.740;22.174;2023-03-04T13:31:57;100006.91;;;14.86;43.13
50349;BME280;36250;48.740;22.174;2023-03-04T13:34:46;99988.78;;;15.29;42.34
50349;BME280;36250;48.740;22.174;2023-03-04T13:37:45;99983.28;;;17.37;39.45
50349;BME280;36250;48.740;22.174;2023-03-04T13:42:48;99975.88;;;18.92;34.80
50349;BME280;36250;48.740;22.174;2023-03-04T13:45:42;99971.03;;;19.78;34.41
50349;BME280;36250;48.740;22.174;2023-03-04T13:48:23;99964.72;;;20.56;32.92
50349;BME280;36250;48.740;22.174;2023-03-04T13:50:50;99955.19;;;21.39;31.08
50349;BME280;36250;48.740;22.174;2023-03-04T13:53:30;99941.56;;;21.72;30.78
50349;BME280;36250;48.740;22.174;2023-03-04T13:56:04;99943.22;;;21.73;30.00
50349;BME280;36250;48.740;22.174;2023-03-04T13:58:30;99939.91;;;21.80;28.78
50349;BME280;36250;48.740;22.174;2023-03-04T14:00:56;99942.91;;;20.72;30.20
50349;BME280;36250;48.740;22.174;2023-03-04T14:03:25;99946.56;;;19.94;31.42
50349;BME280;36250;48.740;22.174;2023-03-04T14:06:10;99943.88;;;18.01;34.19
50349;BME280;36250;48.740;22.174;2023-03-04T14:08:36;99939.81;;;18.26;34.61